Time,TemperatureF,DewpointF,PressureIn,WindDirection,WindDirectionDegrees,WindSpeedMPH,WindSpeedGustMPH,Humidity,HourlyPrecipIn,Conditions,Clouds,dailyrainin,SolarRadiationWatts/m^2,SoftwareType,DateUTC
2013-08-12 00:00:00,57.1,54.2,29.99,ESE,103,0.0,1.0,90,0.00,,---,0.00,0.00,VWS V14.00,2013-08-12 04:00:00,
2013-08-12 00:01:00,57.1,54.2,29.99,ESE,103,0.0,1.0,90,0.00,,---,0.00,0.00,VWS V14.00,2013-08-12 04:01:00,
2013-08-12 00:04:00,57.1,54.2,29.99,ESE,103,1.0,1.0,90,0.00,,---,0.00,0.00,VWS V14.00,2013-08-12 04:04:00,
2013-08-12 00:09:00,57.2,54.3,29.98,ESE,103,1.0,2.0,90,0.00,,---,0.00,0.00,VWS V14.00,2013-08-12 04:09:00,
2013-08-12 00:14:00,57.2,54.3,29.98,ESE,103,0.0,2.0,90,0.00,,---,0.00,0.00,VWS V14.00,2013-08-12 04:14:00,
2013-08-12 00:19:00,57.1,54.2,29.98,ESE,103,0.0,2.0,90,0.00,,---,0.00,0.00,VWS V14.00,2013-08-12 04:19:00,
2013-08-12 00:24:00,57.1,54.2,29.98,ESE,103,0.0,1.0,90,0.00,,---,0.00,0.00,VWS V14.00,2013-08-12 04:24:00,
2013-08-12 00:29:00,57.2,54.3,29.98,ESE,103,0.0,1.0,90,0.00,,---,0.00,0.00,VWS V14.00,2013-08-12 04:29:00,
2013-08-12 00:30:00,50.7,48.5,30.00,ENE,63,2.0,2.0,92,0.00,,---,0.00,0.00,VWS V14.00,2013-08-12 04:30:00,
2013-08-12 00:34:00,57.1,54.2,29.98,ESE,103,0.0,1.0,90,0.00,,---,0.00,0.00,VWS V14.00,2013-08-12 04:34:00,
2013-08-12 00:39:00,57.1,54.2,29.98,ESE,103,0.0,1.0,90,0.00,,---,0.00,0.00,VWS V14.00,2013-08-12 04:39:00,
2013-08-12 00:44:00,57.1,54.2,29.98,ESE,103,0.0,1.0,90,0.00,,---,0.00,0.00,VWS V14.00,2013-08-12 04:44:00,
2013-08-12 00:49:00,57.1,54.2,29.98,ESE,103,1.0,2.0,90,0.00,,---,0.00,0.00,VWS V14.00,2013-08-12 04:49:00,
2013-08-12 00:54:00,57.1,54.2,29.98,ESE,103,0.0,1.0,90,0.00,,---,0.00,0.00,VWS V14.00,2013-08-12 04:54:00,
2013-08-12 00:59:00,57.1,54.2,29.98,ESE,103,0.0,3.0,90,0.00,,---,0.00,0.00,VWS V14.00,2013-08-12 04:59:00,
2013-08-12 01:00:00,50.4,48.2,30.00,ENE,63,0.0,2.0,92,0.00,,---,0.00,0.00,VWS V14.00,2013-08-12 05:00:00,
2013-08-12 01:04:00,57.1,54.2,29.98,ESE,103,0.0,3.0,90,0.00,,---,0.00,0.00,VWS V14.00,2013-08-12 05:04:00,
2013-08-12 01:09:00,57.1,54.2,29.98,ESE,103,0.0,3.0,90,0.00,,---,0.00,0.00,VWS V14.00,2013-08-12 05:09:00,
2013-08-12 01:14:00,57.3,54.4,29.97,ESE,103,0.0,3.0,90,0.00,,---,0.00,0.00,VWS V14.00,2013-08-12 05:14:00,
2013-08-12 01:19:00,57.2,54.3,29.97,ESE,103,0.0,3.0,90,0.00,,---,0.00,0.00,VWS V14.00,2013-08-12 05:19:00,
2013-08-12 01:24:00,57.1,54.2,29.97,ESE,103,0.0,0.0,90,0.00,,---,0.00,0.00,VWS V14.00,2013-08-12 05:24:00,
2013-08-12 01:29:00,57.1,54.2,29.97,ESE,103,0.0,0.0,90,0.00,,---,0.00,0.00,VWS V14.00,2013-08-12 05:29:00,
2013-08-12 01:30:00,49.5,47.3,30.00,ENE,63,1.0,1.0,92,0.00,,---,0.00,0.00,VWS V14.00,2013-08-12 05:30:00,
2013-08-12 01:34:00,57.0,54.1,29.97,ESE,103,0.0,0.0,90,0.00,,---,0.00,0.00,VWS V14.00,2013-08-12 05:34:00,
2013-08-12 01:39:00,56.9,54.0,29.96,ESE,103,0.0,0.0,90,0.00,,---,0.00,0.00,VWS V14.00,2013-08-12 05:39:00,
2013-08-12 01:44:00,56.8,53.9,29.97,ESE,103,0.0,0.0,90,0.00,,---,0.00,0.00,VWS V14.00,2013-08-12 05:44:00,
2013-08-12 01:49:00,56.8,53.9,29.97,ESE,103,0.0,0.0,90,0.00,,---,0.00,0.00,VWS V14.00,2013-08-12 05:49:00,
2013-08-12 01:54:00,56.7,53.8,29.97,ESE,103,0.0,1.0,90,0.00,,---,0.00,0.00,VWS V14.00,2013-08-12 05:54:00,
2013-08-12 01:59:00,56.6,53.7,29.96,ESE,103,0.0,2.0,90,0.00,,---,0.00,0.00,VWS V14.00,2013-08-12 05:59:00,
2013-08-12 02:00:00,48.4,46.2,30.01,SE,144,0.0,2.0,92,0.00,,---,0.00,0.00,VWS V14.00,2013-08-12 06:00:00,
2013-08-12 02:04:00,56.4,53.5,29.97,ESE,103,0.0,2.0,90,0.00,,---,0.00,0.00,VWS V14.00,2013-08-12 06:04:00,
2013-08-12 02:09:00,56.3,53.4,29.97,ESE,103,2.0,2.0,90,0.00,,---,0.00,0.00,VWS V14.00,2013-08-12 06:09:00,
2013-08-12 02:14:00,56.2,53.3,29.96,ESE,103,1.0,3.0,90,0.00,,---,0.00,0.00,VWS V14.00,2013-08-12 06:14:00,
2013-08-12 02:19:00,56.1,53.2,29.96,ESE,103,0.0,3.0,90,0.00,,---,0.00,0.00,VWS V14.00,2013-08-12 06:19:00,
2013-08-12 02:24:00,56.0,53.1,29.97,ESE,103,0.0,1.0,90,0.00,,---,0.00,0.00,VWS V14.00,2013-08-12 06:24:00,
2013-08-12 02:29:00,55.9,53.0,29.96,NNE,17,0.0,3.0,90,0.00,,---,0.00,0.00,VWS V14.00,2013-08-12 06:29:00,
2013-08-12 02:30:00,47.7,45.5,30.02,SE,144,0.0,1.0,92,0.00,,---,0.00,0.00,VWS V14.00,2013-08-12 06:30:00,
2013-08-12 02:34:00,55.8,52.9,29.96,NNE,18,3.0,3.0,90,0.00,,---,0.00,0.00,VWS V14.00,2013-08-12 06:34:00,
2013-08-12 02:39:00,55.6,52.7,29.96,North,360,1.0,3.0,90,0.00,,---,0.00,0.00,VWS V14.00,2013-08-12 06:39:00,
2013-08-12 02:44:00,55.5,52.3,29.96,North,360,0.0,3.0,89,0.00,,---,0.00,0.00,VWS V14.00,2013-08-12 06:44:00,
2013-08-12 02:49:00,55.4,52.2,29.96,North,360,2.0,3.0,89,0.00,,---,0.00,0.00,VWS V14.00,2013-08-12 06:49:00,
2013-08-12 02:54:00,55.3,52.1,29.97,North,360,0.0,0.0,89,0.00,,---,0.00,0.00,VWS V14.00,2013-08-12 06:54:00,
2013-08-12 02:59:00,55.2,52.0,29.97,North,360,0.0,1.0,89,0.00,,---,0.00,0.00,VWS V14.00,2013-08-12 06:59:00,
2013-08-12 03:00:00,47.2,45.0,30.03,SE,144,0.0,1.0,92,0.00,,---,0.00,5.00,VWS V14.00,2013-08-12 07:00:00,
2013-08-12 03:04:00,55.0,51.8,29.98,North,360,0.0,1.0,89,0.00,,---,0.00,0.00,VWS V14.00,2013-08-12 07:04:00,
2013-08-12 03:09:00,54.7,51.5,29.98,North,360,0.0,4.0,89,0.00,,---,0.00,0.00,VWS V14.00,2013-08-12 07:09:00,
2013-08-12 03:14:00,54.4,51.2,29.97,ENE,74,0.0,4.0,89,0.00,,---,0.00,0.00,VWS V14.00,2013-08-12 07:14:00,
2013-08-12 03:19:00,54.2,51.0,29.98,ENE,74,0.0,4.0,89,0.00,,---,0.00,0.00,VWS V14.00,2013-08-12 07:19:00,
2013-08-12 03:24:00,53.8,50.6,29.98,ENE,74,0.0,0.0,89,0.00,,---,0.00,0.00,VWS V14.00,2013-08-12 07:24:00,
2013-08-12 03:29:00,53.6,50.7,29.98,ENE,74,0.0,0.0,90,0.00,,---,0.00,0.00,VWS V14.00,2013-08-12 07:29:00,
2013-08-12 03:30:00,47.5,45.3,30.03,SE,144,1.0,2.0,92,0.00,,---,0.00,14.00,VWS V14.00,2013-08-12 07:30:00,
2013-08-12 03:34:00,53.5,50.6,29.98,ENE,74,1.0,3.0,90,0.00,,---,0.00,0.00,VWS V14.00,2013-08-12 07:34:00,
2013-08-12 03:39:00,53.4,50.5,29.97,ENE,74,2.0,3.0,90,0.00,,---,0.00,0.00,VWS V14.00,2013-08-12 07:39:00,
2013-08-12 03:44:00,53.2,50.3,29.98,ENE,74,1.0,4.0,90,0.00,,---,0.00,0.00,VWS V14.00,2013-08-12 07:44:00,
2013-08-12 03:49:00,53.0,50.2,29.97,ENE,74,0.0,4.0,90,0.00,,---,0.00,0.00,VWS V14.00,2013-08-12 07:49:00,
2013-08-12 03:54:00,52.9,50.0,29.97,ENE,74,0.0,1.0,90,0.00,,---,0.00,0.00,VWS V14.00,2013-08-12 07:54:00,
2013-08-12 03:59:00,52.8,50.0,29.97,ENE,74,0.0,2.0,90,0.00,,---,0.00,0.00,VWS V14.00,2013-08-12 07:59:00,
2013-08-12 04:00:00,48.4,46.5,30.03,SE,144,0.0,3.0,93,0.00,,---,0.00,74.00,VWS V14.00,2013-08-12 08:00:00,
2013-08-12 04:04:00,52.7,49.8,29.97,ENE,74,0.0,2.0,90,0.00,,---,0.00,0.00,VWS V14.00,2013-08-12 08:04:00,
2013-08-12 04:09:00,52.4,49.6,29.97,ENE,74,0.0,2.0,90,0.00,,---,0.00,0.00,VWS V14.00,2013-08-12 08:09:00,
2013-08-12 04:14:00,52.3,49.5,29.97,ENE,74,0.0,2.0,90,0.00,,---,0.00,0.00,VWS V14.00,2013-08-12 08:14:00,
2013-08-12 04:19:00,52.2,49.4,29.98,ENE,74,0.0,2.0,90,0.00,,---,0.00,0.00,VWS V14.00,2013-08-12 08:19:00,
2013-08-12 04:24:00,52.1,49.3,29.98,ENE,74,0.0,0.0,90,0.00,,---,0.00,0.00,VWS V14.00,2013-08-12 08:24:00,
2013-08-12 04:29:00,51.9,49.1,29.98,ENE,74,0.0,1.0,90,0.00,,---,0.00,0.00,VWS V14.00,2013-08-12 08:29:00,
2013-08-12 04:30:00,50.8,48.8,30.04,SE,144,0.0,0.0,93,0.00,,---,0.00,158.00,VWS V14.00,2013-08-12 08:30:00,
2013-08-12 04:34:00,51.7,49.2,29.98,ENE,74,0.0,1.0,91,0.00,,---,0.00,0.00,VWS V14.00,2013-08-12 08:34:00,
2013-08-12 04:39:00,51.5,48.7,29.98,ENE,74,0.0,1.0,90,0.00,,---,0.00,0.00,VWS V14.00,2013-08-12 08:39:00,
2013-08-12 04:45:00,51.3,48.5,29.97,ENE,74,0.0,1.0,90,0.00,,---,0.00,0.00,VWS V14.00,2013-08-12 08:45:00,
2013-08-12 04:50:00,50.9,48.1,29.98,ENE,74,0.0,1.0,90,0.00,,---,0.00,0.00,VWS V14.00,2013-08-12 08:50:00,
2013-08-12 04:55:00,50.5,47.7,29.97,ENE,74,0.0,0.0,90,0.00,,---,0.00,0.00,VWS V14.00,2013-08-12 08:55:00,
2013-08-12 05:00:00,50.5,48.0,29.98,ENE,74,0.0,1.0,91,0.00,,---,0.00,0.00,VWS V14.00,2013-08-12 09:00:00,
2013-08-12 05:05:00,50.5,48.0,29.98,ENE,74,0.0,1.0,91,0.00,,---,0.00,0.00,VWS V14.00,2013-08-12 09:05:00,
2013-08-12 05:10:00,50.5,48.0,29.97,ENE,74,1.0,2.0,91,0.00,,---,0.00,0.00,VWS V14.00,2013-08-12 09:10:00,
2013-08-12 05:15:00,50.4,47.9,29.97,ENE,74,1.0,2.0,91,0.00,,---,0.00,0.00,VWS V14.00,2013-08-12 09:15:00,
2013-08-12 05:20:00,50.4,47.9,29.97,ENE,74,0.0,2.0,91,0.00,,---,0.00,0.00,VWS V14.00,2013-08-12 09:20:00,
2013-08-12 05:25:00,50.3,47.8,29.97,ENE,74,0.0,1.0,91,0.00,,---,0.00,0.00,VWS V14.00,2013-08-12 09:25:00,
2013-08-12 05:30:00,50.2,47.7,29.97,ENE,74,1.0,1.0,91,0.00,,---,0.00,0.00,VWS V14.00,2013-08-12 09:30:00,
2013-08-12 05:35:00,50.3,47.8,29.98,ENE,74,0.0,2.0,91,0.00,,---,0.00,0.00,VWS V14.00,2013-08-12 09:35:00,
2013-08-12 05:40:00,50.0,47.5,29.97,ENE,74,0.0,2.0,91,0.00,,---,0.00,0.00,VWS V14.00,2013-08-12 09:40:00,
2013-08-12 05:45:00,49.7,47.2,29.97,ENE,74,0.0,2.0,91,0.00,,---,0.00,0.00,VWS V14.00,2013-08-12 09:45:00,
2013-08-12 05:50:00,49.5,47.0,29.97,ENE,74,0.0,2.0,91,0.00,,---,0.00,0.00,VWS V14.00,2013-08-12 09:50:00,
2013-08-12 05:55:00,49.5,47.0,29.98,ENE,74,0.0,0.0,91,0.00,,---,0.00,5.00,VWS V14.00,2013-08-12 09:55:00,
2013-08-12 06:00:00,49.6,47.4,29.97,ENE,74,0.0,1.0,92,0.00,,---,0.00,7.00,VWS V14.00,2013-08-12 10:00:00,
2013-08-12 06:05:00,49.5,47.0,29.98,ENE,74,0.0,1.0,91,0.00,,---,0.00,9.00,VWS V14.00,2013-08-12 10:05:00,
2013-08-12 06:10:00,49.5,47.3,29.97,ENE,74,1.0,2.0,92,0.00,,---,0.00,11.00,VWS V14.00,2013-08-12 10:10:00,
2013-08-12 06:15:00,49.5,47.3,29.97,ENE,74,1.0,2.0,92,0.00,,---,0.00,12.00,VWS V14.00,2013-08-12 10:15:00,
2013-08-12 06:20:00,49.5,47.3,29.97,ENE,74,0.0,2.0,92,0.00,,---,0.00,14.00,VWS V14.00,2013-08-12 10:20:00,
2013-08-12 06:25:00,49.4,46.9,29.97,ENE,74,0.0,0.0,91,0.00,,---,0.00,16.00,VWS V14.00,2013-08-12 10:25:00,
2013-08-12 06:30:00,49.3,47.1,29.97,ENE,74,0.0,0.0,92,0.00,,---,0.00,18.00,VWS V14.00,2013-08-12 10:30:00,
2013-08-12 06:35:00,49.4,47.2,29.97,ENE,74,0.0,1.0,92,0.00,,---,0.00,18.00,VWS V14.00,2013-08-12 10:35:00,
2013-08-12 06:40:00,49.5,47.3,29.97,ENE,74,0.0,1.0,92,0.00,,---,0.00,19.00,VWS V14.00,2013-08-12 10:40:00,
2013-08-12 06:45:00,49.7,47.5,29.98,ENE,74,0.0,1.0,92,0.00,,---,0.00,56.00,VWS V14.00,2013-08-12 10:45:00,
2013-08-12 06:50:00,49.9,47.7,29.97,ENE,74,1.0,1.0,92,0.00,,---,0.00,69.00,VWS V14.00,2013-08-12 10:50:00,
2013-08-12 06:55:00,50.2,48.0,29.97,ENE,74,0.0,1.0,92,0.00,,---,0.00,81.00,VWS V14.00,2013-08-12 10:55:00,
2013-08-12 07:00:00,50.6,48.4,29.97,ENE,74,1.0,2.0,92,0.00,,---,0.00,91.00,VWS V14.00,2013-08-12 11:00:00,
2013-08-12 07:05:00,51.1,49.2,29.97,ENE,74,0.0,2.0,93,0.00,,---,0.00,105.00,VWS V14.00,2013-08-12 11:05:00,
2013-08-12 07:10:00,51.5,49.3,29.97,ENE,74,0.0,2.0,92,0.00,,---,0.00,120.00,VWS V14.00,2013-08-12 11:10:00,
2013-08-12 07:15:00,52.0,50.0,29.97,ENE,74,0.0,2.0,93,0.00,,---,0.00,132.00,VWS V14.00,2013-08-12 11:15:00,
2013-08-12 07:20:00,52.7,50.7,29.98,ENE,74,1.0,2.0,93,0.00,,---,0.00,151.00,VWS V14.00,2013-08-12 11:20:00,
2013-08-12 07:25:00,53.1,50.8,29.97,ENE,74,0.0,1.0,92,0.00,,---,0.00,167.00,VWS V14.00,2013-08-12 11:25:00,
2013-08-12 07:30:00,53.6,51.3,29.98,ENE,74,1.0,1.0,92,0.00,,---,0.00,183.00,VWS V14.00,2013-08-12 11:30:00,
2013-08-12 07:35:00,54.1,51.8,29.98,ENE,74,0.0,2.0,92,0.00,,---,0.00,200.00,VWS V14.00,2013-08-12 11:35:00,
2013-08-12 07:40:00,54.6,52.3,29.98,ENE,74,0.0,2.0,92,0.00,,---,0.00,216.00,VWS V14.00,2013-08-12 11:40:00,
2013-08-12 07:46:00,55.2,52.6,29.98,ENE,74,0.0,2.0,91,0.00,,---,0.00,236.00,VWS V14.00,2013-08-12 11:46:00,
2013-08-12 07:51:00,55.7,53.1,29.98,ENE,74,0.0,2.0,91,0.00,,---,0.00,257.00,VWS V14.00,2013-08-12 11:51:00,
2013-08-12 07:56:00,56.4,53.8,29.98,ENE,74,0.0,1.0,91,0.00,,---,0.00,287.00,VWS V14.00,2013-08-12 11:56:00,
2013-08-12 08:00:00,67.0,50.3,30.05,WNW,291,8.0,9.0,55,0.00,,---,0.00,729.00,VWS V14.00,2013-08-12 12:00:00,
2013-08-12 08:01:00,56.9,54.0,29.98,ENE,74,0.0,2.0,90,0.00,,---,0.00,327.00,VWS V14.00,2013-08-12 12:01:00,
2013-08-12 08:06:00,57.5,54.3,29.98,ENE,74,0.0,2.0,89,0.00,,---,0.00,388.00,VWS V14.00,2013-08-12 12:06:00,
2013-08-12 08:11:00,58.2,54.4,29.98,ENE,74,0.0,2.0,87,0.00,,---,0.00,439.00,VWS V14.00,2013-08-12 12:11:00,
2013-08-12 08:16:00,59.3,54.2,29.98,ENE,74,0.0,2.0,83,0.00,,---,0.00,404.00,VWS V14.00,2013-08-12 12:16:00,
2013-08-12 08:21:00,60.4,54.2,29.98,ENE,74,0.0,2.0,80,0.00,,---,0.00,352.00,VWS V14.00,2013-08-12 12:21:00,
2013-08-12 08:26:00,61.4,53.4,29.98,ENE,74,0.0,2.0,75,0.00,,---,0.00,353.00,VWS V14.00,2013-08-12 12:26:00,
2013-08-12 08:30:00,68.3,51.5,30.04,WNW,296,3.0,9.0,55,0.00,,---,0.00,784.00,VWS V14.00,2013-08-12 12:30:00,
2013-08-12 08:31:00,62.3,53.5,29.98,ENE,74,0.0,2.0,73,0.00,,---,0.00,285.00,VWS V14.00,2013-08-12 12:31:00,
2013-08-12 08:36:00,62.9,53.8,29.98,ENE,74,0.0,2.0,72,0.00,,---,0.00,264.00,VWS V14.00,2013-08-12 12:36:00,
2013-08-12 08:41:00,63.4,54.2,29.98,ENE,74,0.0,2.0,72,0.00,,---,0.00,236.00,VWS V14.00,2013-08-12 12:41:00,
2013-08-12 08:46:00,63.8,55.0,29.98,ENE,74,0.0,2.0,73,0.00,,---,0.00,390.00,VWS V14.00,2013-08-12 12:46:00,
2013-08-12 08:51:00,64.3,55.5,29.98,ENE,74,1.0,2.0,73,0.00,,---,0.00,427.00,VWS V14.00,2013-08-12 12:51:00,
2013-08-12 08:56:00,64.6,55.0,29.98,ENE,74,1.0,2.0,71,0.00,,---,0.00,441.00,VWS V14.00,2013-08-12 12:56:00,
2013-08-12 09:00:00,69.2,52.4,30.04,SW,218,1.0,7.0,55,0.00,,---,0.00,842.00,VWS V14.00,2013-08-12 13:00:00,
2013-08-12 09:01:00,64.9,54.1,29.98,ENE,74,0.0,2.0,68,0.00,,---,0.00,455.00,VWS V14.00,2013-08-12 13:01:00,
2013-08-12 09:06:00,65.3,54.9,29.98,ENE,74,0.0,2.0,69,0.00,,---,0.00,468.00,VWS V14.00,2013-08-12 13:06:00,
2013-08-12 09:11:00,65.6,54.4,29.97,ENE,58,3.0,3.0,67,0.00,,---,0.00,482.00,VWS V14.00,2013-08-12 13:11:00,
2013-08-12 09:16:00,65.6,54.8,29.97,North,355,2.0,3.0,68,0.00,,---,0.00,501.00,VWS V14.00,2013-08-12 13:16:00,
2013-08-12 09:21:00,65.7,54.5,29.97,North,355,1.0,3.0,67,0.00,,---,0.00,517.00,VWS V14.00,2013-08-12 13:21:00,
2013-08-12 09:26:00,65.8,55.0,29.97,ESE,118,0.0,3.0,68,0.00,,---,0.00,506.00,VWS V14.00,2013-08-12 13:26:00,
2013-08-12 09:30:00,69.3,49.3,30.03,WSW,244,4.0,7.0,49,0.00,,---,0.00,872.00,VWS V14.00,2013-08-12 13:30:00,
2013-08-12 09:31:00,66.2,54.5,29.97,ESE,118,0.0,3.0,66,0.00,,---,0.00,592.00,VWS V14.00,2013-08-12 13:31:00,
2013-08-12 09:36:00,66.5,54.4,29.96,South,175,2.0,4.0,65,0.00,,---,0.00,591.00,VWS V14.00,2013-08-12 13:36:00,
2013-08-12 09:41:00,66.7,55.8,29.96,South,178,1.0,4.0,68,0.00,,---,0.00,559.00,VWS V14.00,2013-08-12 13:41:00,
2013-08-12 09:46:00,67.7,55.1,29.96,SW,233,0.0,4.0,64,0.00,,---,0.00,747.00,VWS V14.00,2013-08-12 13:46:00,
2013-08-12 09:51:00,68.3,57.3,29.96,WSW,241,1.0,4.0,68,0.00,,---,0.00,401.00,VWS V14.00,2013-08-12 13:51:00,
2013-08-12 09:56:00,67.9,55.3,29.96,WSW,256,0.0,3.0,64,0.00,,---,0.00,353.00,VWS V14.00,2013-08-12 13:56:00,
2013-08-12 10:00:00,69.8,51.9,30.02,SSW,213,2.0,6.0,53,0.00,,---,0.00,919.00,VWS V14.00,2013-08-12 14:00:00,
2013-08-12 10:01:00,68.2,56.0,29.96,WSW,255,0.0,3.0,65,0.00,,---,0.00,285.00,VWS V14.00,2013-08-12 14:01:00,
2013-08-12 10:06:00,68.4,55.8,29.96,WSW,255,0.0,4.0,64,0.00,,---,0.00,747.00,VWS V14.00,2013-08-12 14:06:00,
2013-08-12 10:11:00,68.3,55.2,29.96,West,267,0.0,5.0,63,0.00,,---,0.00,703.00,VWS V14.00,2013-08-12 14:11:00,
2013-08-12 10:16:00,68.3,55.2,29.95,West,269,0.0,5.0,63,0.00,,---,0.00,336.00,VWS V14.00,2013-08-12 14:16:00,
2013-08-12 10:22:00,68.6,56.4,29.96,West,269,1.0,1.0,65,0.00,,---,0.00,350.00,VWS V14.00,2013-08-12 14:22:00,
2013-08-12 10:27:00,68.9,55.8,29.96,West,269,1.0,2.0,63,0.00,,---,0.00,336.00,VWS V14.00,2013-08-12 14:27:00,
2013-08-12 10:30:00,69.8,53.4,30.02,West,263,0.0,7.0,56,0.00,,---,0.00,260.00,VWS V14.00,2013-08-12 14:30:00,
2013-08-12 10:32:00,68.8,56.1,29.96,West,269,2.0,3.0,64,0.00,,---,0.00,364.00,VWS V14.00,2013-08-12 14:32:00,
2013-08-12 10:37:00,68.8,55.7,29.96,West,266,2.0,4.0,63,0.00,,---,0.00,431.00,VWS V14.00,2013-08-12 14:37:00,
2013-08-12 10:42:00,68.6,56.4,29.96,WNW,290,0.0,4.0,65,0.00,,---,0.00,464.00,VWS V14.00,2013-08-12 14:42:00,
2013-08-12 10:47:00,68.6,56.0,29.96,South,190,0.0,5.0,64,0.00,,---,0.00,448.00,VWS V14.00,2013-08-12 14:47:00,
2013-08-12 10:52:00,68.1,56.3,29.95,South,182,0.0,2.0,66,0.00,,---,0.00,439.00,VWS V14.00,2013-08-12 14:52:00,
2013-08-12 10:57:00,68.4,57.0,29.95,West,260,3.0,4.0,67,0.00,,---,0.00,417.00,VWS V14.00,2013-08-12 14:57:00,
2013-08-12 11:00:00,70.1,53.7,30.01,WNW,301,5.0,7.0,56,0.00,,---,0.00,1109.00,VWS V14.00,2013-08-12 15:00:00,
2013-08-12 11:02:00,68.6,56.8,29.95,WNW,293,2.0,5.0,66,0.00,,---,0.00,445.00,VWS V14.00,2013-08-12 15:02:00,
2013-08-12 11:07:00,68.8,57.8,29.95,WNW,298,3.0,5.0,68,0.00,,---,0.00,390.00,VWS V14.00,2013-08-12 15:07:00,
2013-08-12 11:12:00,68.7,56.0,29.95,WNW,283,0.0,5.0,64,0.00,,---,0.00,380.00,VWS V14.00,2013-08-12 15:12:00,
2013-08-12 11:17:00,68.9,56.2,29.95,NW,304,2.0,6.0,64,0.00,,---,0.00,353.00,VWS V14.00,2013-08-12 15:17:00,
2013-08-12 11:22:00,68.8,57.4,29.95,NW,311,0.0,1.0,67,0.00,,---,0.00,445.00,VWS V14.00,2013-08-12 15:22:00,
2013-08-12 11:27:00,68.6,56.4,29.95,NNW,331,7.0,8.0,65,0.00,,---,0.00,802.00,VWS V14.00,2013-08-12 15:27:00,
2013-08-12 11:30:00,69.9,54.0,30.01,NW,306,5.0,8.0,57,0.00,,---,0.00,367.00,VWS V14.00,2013-08-12 15:30:00,
2013-08-12 11:32:00,68.6,56.4,29.95,SSW,207,3.0,8.0,65,0.00,,---,0.00,949.00,VWS V14.00,2013-08-12 15:32:00,
2013-08-12 11:37:00,68.4,56.2,29.95,WNW,302,6.0,8.0,65,0.00,,---,0.00,346.00,VWS V14.00,2013-08-12 15:37:00,
2013-08-12 11:42:00,68.4,56.6,29.95,NNW,327,3.0,8.0,66,0.00,,---,0.00,396.00,VWS V14.00,2013-08-12 15:42:00,
2013-08-12 11:47:00,68.8,58.2,29.95,West,266,1.0,8.0,69,0.00,,---,0.00,306.00,VWS V14.00,2013-08-12 15:47:00,
2013-08-12 11:52:00,69.0,57.6,29.95,WSW,254,2.0,3.0,67,0.00,,---,0.00,195.00,VWS V14.00,2013-08-12 15:52:00,
2013-08-12 11:57:00,68.8,57.4,29.94,NW,315,2.0,7.0,67,0.00,,---,0.00,172.00,VWS V14.00,2013-08-12 15:57:00,
2013-08-12 12:00:00,71.8,55.3,30.00,WNW,297,0.0,6.0,56,0.00,,---,0.00,861.00,VWS V14.00,2013-08-12 16:00:00,
2013-08-12 12:02:00,68.6,57.2,29.94,NW,318,4.0,7.0,67,0.00,,---,0.00,176.00,VWS V14.00,2013-08-12 16:02:00,
2013-08-12 12:07:00,68.3,57.8,29.94,NNW,329,0.0,8.0,69,0.00,,---,0.00,185.00,VWS V14.00,2013-08-12 16:07:00,
2013-08-12 12:13:00,68.7,58.1,29.94,NW,311,3.0,8.0,69,0.00,,---,0.00,958.00,VWS V14.00,2013-08-12 16:13:00,
2013-08-12 12:18:00,69.0,57.2,29.94,WNW,300,3.0,8.0,66,0.00,,---,0.00,886.00,VWS V14.00,2013-08-12 16:18:00,
2013-08-12 12:23:00,69.4,57.6,29.94,South,175,1.0,5.0,66,0.00,,---,0.00,844.00,VWS V14.00,2013-08-12 16:23:00,
2013-08-12 12:28:00,70.7,58.8,29.93,WNW,300,0.0,6.0,66,0.00,,---,0.00,898.00,VWS V14.00,2013-08-12 16:28:00,
2013-08-12 12:30:00,71.3,54.8,29.99,South,171,3.0,7.0,56,0.00,,---,0.00,745.00,VWS V14.00,2013-08-12 16:30:00,
2013-08-12 12:33:00,70.7,58.4,29.93,WSW,250,0.0,6.0,65,0.00,,---,0.00,930.00,VWS V14.00,2013-08-12 16:33:00,
2013-08-12 12:38:00,71.3,58.9,29.93,West,273,2.0,6.0,65,0.00,,---,0.00,902.00,VWS V14.00,2013-08-12 16:38:00,
2013-08-12 12:43:00,71.2,57.5,29.93,SW,223,2.0,6.0,62,0.00,,---,0.00,888.00,VWS V14.00,2013-08-12 16:43:00,
2013-08-12 12:48:00,70.9,59.0,29.93,SW,220,1.0,6.0,66,0.00,,---,0.00,904.00,VWS V14.00,2013-08-12 16:48:00,
2013-08-12 12:53:00,71.6,57.9,29.93,NW,306,3.0,5.0,62,0.00,,---,0.00,893.00,VWS V14.00,2013-08-12 16:53:00,
2013-08-12 12:58:00,71.5,58.3,29.93,NW,326,1.0,7.0,63,0.00,,---,0.00,891.00,VWS V14.00,2013-08-12 16:58:00,
2013-08-12 13:00:00,72.3,55.2,29.98,SSW,196,6.0,7.0,55,0.00,,---,0.00,714.00,VWS V14.00,2013-08-12 17:00:00,
2013-08-12 13:03:00,72.2,59.4,29.93,SW,225,1.0,7.0,64,0.00,,---,0.00,932.00,VWS V14.00,2013-08-12 17:03:00,
2013-08-12 13:08:00,72.8,58.1,29.93,NW,304,3.0,8.0,60,0.00,,---,0.00,909.00,VWS V14.00,2013-08-12 17:08:00,
2013-08-12 13:13:00,72.4,59.1,29.93,WNW,287,0.0,8.0,63,0.00,,---,0.00,935.00,VWS V14.00,2013-08-12 17:13:00,
2013-08-12 13:18:00,73.3,57.2,29.93,West,278,1.0,8.0,57,0.00,,---,0.00,793.00,VWS V14.00,2013-08-12 17:18:00,
2013-08-12 13:23:00,73.2,56.6,29.93,WSW,243,0.0,3.0,56,0.00,,---,0.00,835.00,VWS V14.00,2013-08-12 17:23:00,
2013-08-12 13:28:00,73.3,59.0,29.92,NNW,338,7.0,7.0,61,0.00,,---,0.00,946.00,VWS V14.00,2013-08-12 17:28:00,
2013-08-12 13:30:00,72.1,54.6,29.98,South,176,1.0,9.0,54,0.00,,---,0.00,679.00,VWS V14.00,2013-08-12 17:30:00,
2013-08-12 13:33:00,73.1,57.9,29.92,WNW,294,1.0,11.0,59,0.00,,---,0.00,984.00,VWS V14.00,2013-08-12 17:33:00,
2013-08-12 13:38:00,72.9,57.3,29.92,West,267,0.0,11.0,58,0.00,,---,0.00,288.00,VWS V14.00,2013-08-12 17:38:00,
2013-08-12 13:43:00,72.4,57.8,29.92,SSW,208,2.0,11.0,60,0.00,,---,0.00,360.00,VWS V14.00,2013-08-12 17:43:00,
2013-08-12 13:48:00,73.0,58.8,29.92,WSW,240,0.0,11.0,61,0.00,,---,0.00,272.00,VWS V14.00,2013-08-12 17:48:00,
2013-08-12 13:53:00,72.4,58.7,29.92,NNW,332,1.0,3.0,62,0.00,,---,0.00,932.00,VWS V14.00,2013-08-12 17:53:00,
2013-08-12 13:58:00,73.1,59.3,29.91,NW,313,0.0,5.0,62,0.00,,---,0.00,904.00,VWS V14.00,2013-08-12 17:58:00,
2013-08-12 14:00:00,72.6,53.5,29.97,SSW,211,1.0,7.0,51,0.00,,---,0.00,548.00,VWS V14.00,2013-08-12 18:00:00,
2013-08-12 14:03:00,73.5,56.9,29.91,West,265,0.0,5.0,56,0.00,,---,0.00,761.00,VWS V14.00,2013-08-12 18:03:00,
2013-08-12 14:08:00,73.4,57.3,29.91,WNW,300,5.0,7.0,57,0.00,,---,0.00,192.00,VWS V14.00,2013-08-12 18:08:00,
2013-08-12 14:14:00,72.9,58.7,29.91,NNW,335,0.0,7.0,61,0.00,,---,0.00,969.00,VWS V14.00,2013-08-12 18:14:00,
2013-08-12 14:19:00,73.3,57.2,29.91,NW,304,0.0,7.0,57,0.00,,---,0.00,888.00,VWS V14.00,2013-08-12 18:19:00,
2013-08-12 14:24:00,73.5,57.3,29.91,SW,223,1.0,7.0,57,0.00,,---,0.00,881.00,VWS V14.00,2013-08-12 18:24:00,
2013-08-12 14:29:00,73.5,58.3,29.91,SW,230,4.0,7.0,59,0.00,,---,0.00,900.00,VWS V14.00,2013-08-12 18:29:00,
2013-08-12 14:30:00,71.9,54.4,29.97,SW,236,1.0,5.0,54,0.00,,---,0.00,503.00,VWS V14.00,2013-08-12 18:30:00,
2013-08-12 14:34:00,73.4,57.7,29.91,SW,222,3.0,7.0,58,0.00,,---,0.00,824.00,VWS V14.00,2013-08-12 18:34:00,
2013-08-12 14:39:00,74.2,59.4,29.91,SW,219,0.0,7.0,60,0.00,,---,0.00,868.00,VWS V14.00,2013-08-12 18:39:00,
2013-08-12 14:44:00,74.1,57.9,29.91,SSW,195,1.0,7.0,57,0.00,,---,0.00,888.00,VWS V14.00,2013-08-12 18:44:00,
2013-08-12 14:49:00,73.5,57.3,29.91,SSW,197,1.0,7.0,57,0.00,,---,0.00,886.00,VWS V14.00,2013-08-12 18:49:00,
2013-08-12 14:54:00,72.9,58.7,29.91,West,266,6.0,6.0,61,0.00,,---,0.00,863.00,VWS V14.00,2013-08-12 18:54:00,
2013-08-12 14:59:00,73.6,58.4,29.91,SSE,162,2.0,9.0,59,0.00,,---,0.00,830.00,VWS V14.00,2013-08-12 18:59:00,
2013-08-12 15:00:00,71.5,54.0,29.97,SW,227,2.0,7.0,54,0.00,,---,0.00,360.00,VWS V14.00,2013-08-12 19:00:00,
2013-08-12 15:04:00,72.8,57.2,29.90,South,184,4.0,9.0,58,0.00,,---,0.00,893.00,VWS V14.00,2013-08-12 19:04:00,
2013-08-12 15:09:00,73.0,57.4,29.90,SSW,197,6.0,9.0,58,0.00,,---,0.00,858.00,VWS V14.00,2013-08-12 19:09:00,
2013-08-12 15:14:00,73.5,57.8,29.90,South,187,3.0,9.0,58,0.00,,---,0.00,849.00,VWS V14.00,2013-08-12 19:14:00,
2013-08-12 15:19:00,73.8,56.6,29.90,WSW,250,1.0,9.0,55,0.00,,---,0.00,867.00,VWS V14.00,2013-08-12 19:19:00,
2013-08-12 15:24:00,74.0,57.8,29.90,WSW,246,4.0,7.0,57,0.00,,---,0.00,445.00,VWS V14.00,2013-08-12 19:24:00,
2013-08-12 15:29:00,73.5,57.8,29.90,WSW,238,2.0,7.0,58,0.00,,---,0.00,756.00,VWS V14.00,2013-08-12 19:29:00,
2013-08-12 15:30:00,71.1,55.6,29.95,SW,236,0.0,7.0,58,0.00,,---,0.00,51.00,VWS V14.00,2013-08-12 19:30:00,
2013-08-12 15:34:00,74.1,58.4,29.90,West,262,1.0,7.0,58,0.00,,---,0.00,784.00,VWS V14.00,2013-08-12 19:34:00,
2013-08-12 15:39:00,74.5,58.3,29.90,South,183,0.0,7.0,57,0.00,,---,0.00,763.00,VWS V14.00,2013-08-12 19:39:00,
2013-08-12 15:44:00,74.8,59.0,29.90,South,190,0.0,7.0,58,0.00,,---,0.00,751.00,VWS V14.00,2013-08-12 19:44:00,
2013-08-12 15:49:00,74.2,58.5,29.90,West,263,3.0,7.0,58,0.00,,---,0.00,606.00,VWS V14.00,2013-08-12 19:49:00,
2013-08-12 15:54:00,74.3,57.6,29.89,West,275,0.0,5.0,56,0.00,,---,0.00,165.00,VWS V14.00,2013-08-12 19:54:00,
2013-08-12 15:59:00,73.3,58.1,29.89,SW,219,1.0,8.0,59,0.00,,---,0.00,563.00,VWS V14.00,2013-08-12 19:59:00,
2013-08-12 16:00:00,69.8,56.7,29.96,South,181,2.0,5.0,63,0.00,,---,0.00,42.00,VWS V14.00,2013-08-12 20:00:00,
2013-08-12 16:04:00,73.5,58.3,29.89,SSW,202,2.0,8.0,59,0.00,,---,0.00,459.00,VWS V14.00,2013-08-12 20:04:00,
2013-08-12 16:09:00,73.4,57.7,29.90,SW,231,0.0,8.0,58,0.00,,---,0.00,809.00,VWS V14.00,2013-08-12 20:09:00,
2013-08-12 16:14:00,73.3,57.7,29.90,South,173,0.0,8.0,58,0.00,,---,0.00,236.00,VWS V14.00,2013-08-12 20:14:00,
2013-08-12 16:19:00,73.3,58.1,29.89,SW,233,0.0,8.0,59,0.00,,---,0.00,761.00,VWS V14.00,2013-08-12 20:19:00,
2013-08-12 16:24:00,73.2,58.0,29.89,South,169,3.0,9.0,59,0.00,,---,0.00,283.00,VWS V14.00,2013-08-12 20:24:00,
2013-08-12 16:29:00,73.0,58.3,29.89,South,179,1.0,9.0,60,0.00,,---,0.00,204.00,VWS V14.00,2013-08-12 20:29:00,
2013-08-12 16:30:00,73.0,58.3,29.89,South,179,1.0,9.0,60,0.00,,---,0.00,204.00,VWS V14.00,2013-08-12 20:30:00,
2013-08-12 16:35:00,72.7,58.5,29.89,SSW,213,1.0,9.0,61,0.00,,---,0.00,471.00,VWS V14.00,2013-08-12 20:35:00,
2013-08-12 16:40:00,72.7,58.0,29.89,SSW,211,0.0,9.0,60,0.00,,---,0.00,501.00,VWS V14.00,2013-08-12 20:40:00,
2013-08-12 16:45:00,72.8,58.1,29.89,WSW,238,0.0,9.0,60,0.00,,---,0.00,322.00,VWS V14.00,2013-08-12 20:45:00,
2013-08-12 16:50:00,72.7,58.9,29.89,South,185,2.0,9.0,62,0.00,,---,0.00,647.00,VWS V14.00,2013-08-12 20:50:00,
2013-08-12 16:55:00,72.5,58.8,29.89,SSW,203,3.0,9.0,62,0.00,,---,0.00,504.00,VWS V14.00,2013-08-12 20:55:00,
2013-08-12 17:00:00,72.3,58.1,29.89,South,177,2.0,9.0,61,0.00,,---,0.00,396.00,VWS V14.00,2013-08-12 21:00:00,
2013-08-12 17:05:00,72.3,58.1,29.89,SSW,197,0.0,9.0,61,0.00,,---,0.00,244.00,VWS V14.00,2013-08-12 21:05:00,
2013-08-12 17:10:00,72.2,58.5,29.89,South,169,1.0,9.0,62,0.00,,---,0.00,207.00,VWS V14.00,2013-08-12 21:10:00,
2013-08-12 17:15:00,72.1,58.4,29.89,SW,218,3.0,9.0,62,0.00,,---,0.00,213.00,VWS V14.00,2013-08-12 21:15:00,
2013-08-12 17:20:00,71.9,59.1,29.89,South,181,0.0,9.0,64,0.00,,---,0.00,199.00,VWS V14.00,2013-08-12 21:20:00,
2013-08-12 17:25:00,71.7,58.9,29.89,South,181,0.0,1.0,64,0.00,,---,0.00,172.00,VWS V14.00,2013-08-12 21:25:00,
2013-08-12 17:30:00,71.7,58.9,29.89,South,170,1.0,6.0,64,0.00,,---,0.00,172.00,VWS V14.00,2013-08-12 21:30:00,
2013-08-12 17:35:00,71.5,59.1,29.89,SW,215,3.0,6.0,65,0.00,,---,0.00,185.00,VWS V14.00,2013-08-12 21:35:00,
2013-08-12 17:40:00,71.5,60.0,29.88,SSW,192,0.0,6.0,67,0.00,,---,0.00,162.00,VWS V14.00,2013-08-12 21:40:00,
2013-08-12 17:45:00,71.4,59.9,29.88,South,182,0.0,6.0,67,0.00,,---,0.00,153.00,VWS V14.00,2013-08-12 21:45:00,
2013-08-12 17:50:00,71.2,59.7,29.88,SW,226,0.0,6.0,67,0.00,,---,0.00,160.00,VWS V14.00,2013-08-12 21:50:00,
2013-08-12 17:55:00,71.1,59.6,29.89,South,178,0.0,4.0,67,0.00,,---,0.00,134.00,VWS V14.00,2013-08-12 21:55:00,
2013-08-12 18:00:00,60.7,55.8,29.97,SE,137,2.0,2.0,84,0.00,,---,0.00,0.00,VWS V14.00,2013-08-12 22:00:00,
2013-08-12 18:01:00,71.0,59.5,29.88,South,181,2.0,5.0,67,0.00,,---,0.00,116.00,VWS V14.00,2013-08-12 22:01:00,
2013-08-12 18:06:00,70.9,59.8,29.88,South,181,0.0,5.0,68,0.00,,---,0.00,111.00,VWS V14.00,2013-08-12 22:06:00,
2013-08-12 18:11:00,70.9,59.8,29.88,SSE,159,2.0,5.0,68,0.00,,---,0.00,104.00,VWS V14.00,2013-08-12 22:11:00,
2013-08-12 18:16:00,70.7,59.2,29.88,SW,225,1.0,5.0,67,0.00,,---,0.00,98.00,VWS V14.00,2013-08-12 22:16:00,
2013-08-12 18:21:00,70.4,59.8,29.88,SSE,161,5.0,5.0,69,0.00,,---,0.00,91.00,VWS V14.00,2013-08-12 22:21:00,
2013-08-12 18:26:00,70.3,59.7,29.88,South,188,1.0,6.0,69,0.00,,---,0.00,102.00,VWS V14.00,2013-08-12 22:26:00,
2013-08-12 18:30:00,59.1,54.9,29.98,SE,137,0.0,2.0,86,0.00,,---,0.00,0.00,VWS V14.00,2013-08-12 22:30:00,
2013-08-12 18:31:00,70.2,59.2,29.88,South,185,0.0,6.0,68,0.00,,---,0.00,104.00,VWS V14.00,2013-08-12 22:31:00,
2013-08-12 18:36:00,70.1,59.5,29.88,South,185,0.0,6.0,69,0.00,,---,0.00,88.00,VWS V14.00,2013-08-12 22:36:00,
2013-08-12 18:41:00,70.0,59.4,29.88,South,189,1.0,6.0,69,0.00,,---,0.00,81.00,VWS V14.00,2013-08-12 22:41:00,
2013-08-12 18:46:00,69.9,59.7,29.87,South,185,0.0,6.0,70,0.00,,---,0.00,83.00,VWS V14.00,2013-08-12 22:46:00,
2013-08-12 18:51:00,69.8,60.8,29.87,South,185,0.0,6.0,73,0.00,,---,0.00,90.00,VWS V14.00,2013-08-12 22:51:00,
2013-08-12 18:56:00,69.7,61.0,29.87,South,185,0.0,0.0,74,0.00,,---,0.00,93.00,VWS V14.00,2013-08-12 22:56:00,
2013-08-12 19:00:00,58.2,54.4,29.98,ESE,103,0.0,4.0,87,0.00,,---,0.00,0.00,VWS V14.00,2013-08-12 23:00:00,
2013-08-12 19:01:00,69.5,60.9,29.87,South,185,0.0,1.0,74,0.00,,---,0.00,97.00,VWS V14.00,2013-08-12 23:01:00,
2013-08-12 19:06:00,69.5,60.9,29.87,South,185,0.0,1.0,74,0.00,,---,0.00,91.00,VWS V14.00,2013-08-12 23:06:00,
2013-08-12 19:11:00,69.4,60.4,29.87,South,185,1.0,1.0,73,0.00,,---,0.00,76.00,VWS V14.00,2013-08-12 23:11:00,
2013-08-12 19:16:00,69.4,60.4,29.86,South,185,0.0,1.0,73,0.00,,---,0.00,54.00,VWS V14.00,2013-08-12 23:16:00,
2013-08-12 19:21:00,69.3,59.9,29.86,South,185,0.0,1.0,72,0.00,,---,0.00,28.00,VWS V14.00,2013-08-12 23:21:00,
2013-08-12 19:26:00,69.3,59.5,29.87,South,185,0.0,2.0,71,0.00,,---,0.00,26.00,VWS V14.00,2013-08-12 23:26:00,
2013-08-12 19:30:00,58.0,54.5,29.98,ESE,103,0.0,2.0,88,0.00,,---,0.00,0.00,VWS V14.00,2013-08-12 23:30:00,
2013-08-12 19:31:00,69.2,59.8,29.87,South,185,1.0,2.0,72,0.00,,---,0.00,25.00,VWS V14.00,2013-08-12 23:31:00,
2013-08-12 19:36:00,69.1,60.1,29.87,South,185,0.0,2.0,73,0.00,,---,0.00,25.00,VWS V14.00,2013-08-12 23:36:00,
2013-08-12 19:41:00,69.0,60.8,29.87,South,185,0.0,2.0,75,0.00,,---,0.00,16.00,VWS V14.00,2013-08-12 23:41:00,
2013-08-12 19:46:00,68.4,61.6,29.87,South,185,0.0,2.0,79,0.00,,---,0.00,11.00,VWS V14.00,2013-08-12 23:46:00,
2013-08-12 19:51:00,67.9,61.5,29.87,South,185,0.0,2.0,80,0.00,,---,0.00,7.00,VWS V14.00,2013-08-12 23:51:00,
2013-08-12 19:56:00,67.8,61.4,29.87,South,185,0.0,0.0,80,0.00,,---,0.00,5.00,VWS V14.00,2013-08-12 23:56:00,
2013-08-12 20:00:00,57.7,54.5,29.98,ESE,103,0.0,1.0,89,0.00,,---,0.00,0.00,VWS V14.00,2013-08-13 00:00:00,
2013-08-12 20:01:00,67.6,61.6,29.87,South,185,0.0,0.0,81,0.00,,---,0.00,0.00,VWS V14.00,2013-08-13 00:01:00,
2013-08-12 20:06:00,67.5,61.5,29.87,South,185,0.0,0.0,81,0.00,,---,0.00,0.00,VWS V14.00,2013-08-13 00:06:00,
2013-08-12 20:11:00,67.1,61.4,29.87,South,185,0.0,1.0,82,0.00,,---,0.00,0.00,VWS V14.00,2013-08-13 00:11:00,
2013-08-12 20:16:00,66.8,61.1,29.86,South,185,0.0,1.0,82,0.00,,---,0.00,0.00,VWS V14.00,2013-08-13 00:16:00,
2013-08-12 20:21:00,66.5,61.2,29.87,South,185,0.0,1.0,83,0.00,,---,0.00,0.00,VWS V14.00,2013-08-13 00:21:00,
2013-08-12 20:26:00,66.1,60.8,29.86,South,185,0.0,0.0,83,0.00,,---,0.00,0.00,VWS V14.00,2013-08-13 00:26:00,
2013-08-12 20:30:00,57.5,54.3,29.99,ESE,103,0.0,1.0,89,0.00,,---,0.00,0.00,VWS V14.00,2013-08-13 00:30:00,
2013-08-12 20:31:00,65.8,60.8,29.87,South,185,0.0,1.0,84,0.00,,---,0.00,0.00,VWS V14.00,2013-08-13 00:31:00,
2013-08-12 20:36:00,65.5,60.5,29.87,South,184,0.0,1.0,84,0.00,,---,0.00,0.00,VWS V14.00,2013-08-13 00:36:00,
2013-08-12 20:41:00,65.2,60.2,29.87,South,185,1.0,1.0,84,0.00,,---,0.00,0.00,VWS V14.00,2013-08-13 00:41:00,
2013-08-12 20:46:00,64.9,60.0,29.87,South,185,0.0,2.0,84,0.00,,---,0.00,0.00,VWS V14.00,2013-08-13 00:46:00,
2013-08-12 20:52:00,64.7,59.8,29.87,South,185,0.0,0.0,84,0.00,,---,0.00,0.00,VWS V14.00,2013-08-13 00:52:00,
2013-08-12 20:57:00,64.5,59.6,29.87,South,185,0.0,1.0,84,0.00,,---,0.00,0.00,VWS V14.00,2013-08-13 00:57:00,
2013-08-12 21:00:00,57.1,53.9,29.99,ESE,103,0.0,2.0,89,0.00,,---,0.00,0.00,VWS V14.00,2013-08-13 01:00:00,
2013-08-12 21:02:00,64.4,59.5,29.88,South,185,0.0,1.0,84,0.00,,---,0.00,0.00,VWS V14.00,2013-08-13 01:02:00,
2013-08-12 21:07:00,64.2,59.3,29.88,South,185,0.0,2.0,84,0.00,,---,0.00,0.00,VWS V14.00,2013-08-13 01:07:00,
2013-08-12 21:12:00,64.1,59.2,29.88,South,185,0.0,2.0,84,0.00,,---,0.00,0.00,VWS V14.00,2013-08-13 01:12:00,
2013-08-12 21:17:00,64.0,59.1,29.88,South,185,0.0,2.0,84,0.00,,---,0.00,0.00,VWS V14.00,2013-08-13 01:17:00,
2013-08-12 21:22:00,63.8,58.5,29.88,South,185,0.0,0.0,83,0.00,,---,0.00,0.00,VWS V14.00,2013-08-13 01:22:00,
2013-08-12 21:27:00,63.8,58.5,29.88,South,185,0.0,1.0,83,0.00,,---,0.00,0.00,VWS V14.00,2013-08-13 01:27:00,
2013-08-12 21:30:00,57.1,54.2,29.98,ESE,103,0.0,2.0,90,0.00,,---,0.00,0.00,VWS V14.00,2013-08-13 01:30:00,
2013-08-12 21:32:00,63.7,58.8,29.88,South,185,0.0,1.0,84,0.00,,---,0.00,0.00,VWS V14.00,2013-08-13 01:32:00,
2013-08-12 21:37:00,63.7,58.8,29.88,South,185,0.0,1.0,84,0.00,,---,0.00,0.00,VWS V14.00,2013-08-13 01:37:00,
2013-08-12 21:42:00,63.6,58.7,29.87,South,185,0.0,1.0,84,0.00,,---,0.00,0.00,VWS V14.00,2013-08-13 01:42:00,
2013-08-12 21:47:00,63.5,58.9,29.87,South,185,0.0,1.0,85,0.00,,---,0.00,0.00,VWS V14.00,2013-08-13 01:47:00,
2013-08-12 21:52:00,63.1,58.5,29.87,South,185,0.0,1.0,85,0.00,,---,0.00,0.00,VWS V14.00,2013-08-13 01:52:00,
2013-08-12 21:57:00,62.9,58.7,29.87,South,185,0.0,1.0,86,0.00,,---,0.00,0.00,VWS V14.00,2013-08-13 01:57:00,
2013-08-12 22:00:00,57.1,54.2,29.98,ESE,103,0.0,2.0,90,0.00,,---,0.00,0.00,VWS V14.00,2013-08-13 02:00:00,
2013-08-12 22:02:00,62.9,58.7,29.87,South,185,0.0,1.0,86,0.00,,---,0.00,0.00,VWS V14.00,2013-08-13 02:02:00,
2013-08-12 22:07:00,62.7,58.5,29.87,South,185,0.0,1.0,86,0.00,,---,0.00,0.00,VWS V14.00,2013-08-13 02:07:00,
2013-08-12 22:13:00,62.5,58.3,29.87,South,185,0.0,1.0,86,0.00,,---,0.00,0.00,VWS V14.00,2013-08-13 02:13:00,
2013-08-12 22:18:00,62.5,58.3,29.87,South,185,0.0,1.0,86,0.00,,---,0.00,0.00,VWS V14.00,2013-08-13 02:18:00,
2013-08-12 22:23:00,62.5,58.3,29.87,South,185,0.0,0.0,86,0.00,,---,0.00,0.00,VWS V14.00,2013-08-13 02:23:00,
2013-08-12 22:28:00,62.5,57.9,29.87,South,185,1.0,2.0,85,0.00,,---,0.00,0.00,VWS V14.00,2013-08-13 02:28:00,
2013-08-12 22:30:00,57.2,54.3,29.97,ESE,103,0.0,3.0,90,0.00,,---,0.00,0.00,VWS V14.00,2013-08-13 02:30:00,
2013-08-12 22:33:00,62.5,57.9,29.87,South,185,0.0,2.0,85,0.00,,---,0.00,0.00,VWS V14.00,2013-08-13 02:33:00,
2013-08-12 22:38:00,62.5,58.3,29.87,South,185,0.0,2.0,86,0.00,,---,0.00,0.00,VWS V14.00,2013-08-13 02:38:00,
2013-08-12 22:43:00,62.5,57.9,29.87,South,185,0.0,2.0,85,0.00,,---,0.00,0.00,VWS V14.00,2013-08-13 02:43:00,
2013-08-12 22:48:00,62.4,57.8,29.87,South,184,0.0,2.0,85,0.00,,---,0.00,0.00,VWS V14.00,2013-08-13 02:48:00,
2013-08-12 22:53:00,62.2,57.6,29.87,South,185,1.0,1.0,85,0.00,,---,0.00,0.00,VWS V14.00,2013-08-13 02:53:00,
2013-08-12 22:58:00,62.0,57.5,29.87,South,185,0.0,1.0,85,0.00,,---,0.00,0.00,VWS V14.00,2013-08-13 02:58:00,
2013-08-12 23:00:00,56.8,53.9,29.97,ESE,103,0.0,0.0,90,0.00,,---,0.00,0.00,VWS V14.00,2013-08-13 03:00:00,
2013-08-12 23:03:00,61.9,57.7,29.87,South,185,0.0,1.0,86,0.00,,---,0.00,0.00,VWS V14.00,2013-08-13 03:03:00,
2013-08-12 23:08:00,61.7,57.5,29.87,South,185,0.0,1.0,86,0.00,,---,0.00,0.00,VWS V14.00,2013-08-13 03:08:00,
2013-08-12 23:13:00,61.5,57.3,29.87,South,185,0.0,1.0,86,0.00,,---,0.00,0.00,VWS V14.00,2013-08-13 03:13:00,
2013-08-12 23:18:00,61.3,57.4,29.87,South,185,0.0,1.0,87,0.00,,---,0.00,0.00,VWS V14.00,2013-08-13 03:18:00,
2013-08-12 23:23:00,61.0,57.1,29.87,South,185,0.0,0.0,87,0.00,,---,0.00,0.00,VWS V14.00,2013-08-13 03:23:00,
2013-08-12 23:28:00,60.7,56.8,29.87,South,185,0.0,1.0,87,0.00,,---,0.00,0.00,VWS V14.00,2013-08-13 03:28:00,
2013-08-12 23:30:00,56.1,53.2,29.96,ESE,103,0.0,3.0,90,0.00,,---,0.00,0.00,VWS V14.00,2013-08-13 03:30:00,
2013-08-12 23:33:00,60.5,56.6,29.87,South,185,1.0,1.0,87,0.00,,---,0.00,0.00,VWS V14.00,2013-08-13 03:33:00,
2013-08-12 23:38:00,60.3,56.4,29.86,South,185,1.0,2.0,87,0.00,,---,0.00,0.00,VWS V14.00,2013-08-13 03:38:00,
2013-08-12 23:43:00,60.1,56.5,29.86,NE,50,0.0,3.0,88,0.00,,---,0.00,0.00,VWS V14.00,2013-08-13 03:43:00,
2013-08-12 23:48:00,60.0,56.4,29.86,NE,50,0.0,3.0,88,0.00,,---,0.00,0.00,VWS V14.00,2013-08-13 03:48:00,
2013-08-12 23:53:00,59.8,56.2,29.87,NE,50,0.0,1.0,88,0.00,,---,0.00,0.00,VWS V14.00,2013-08-13 03:53:00,
2013-08-12 23:58:00,59.7,56.2,29.87,NE,50,0.0,1.0,88,0.00,,---,0.00,0.00,VWS V14.00,2013-08-13 03:58:00,